ADDS METAR Data INFO
IDs: Format: Raw Decoded Include TAF

Data at: 0349 UTC 18 Oct 2017

KCAR 180254Z AUTO 20007KT 10SM BKN049 OVC085 08/00 A2998 RMK AO2 SLP160 T00830000 58007
KCAR 180154Z AUTO 21009KT 10SM BKN055 OVC070 08/00 A3000 RMK AO2 SLP168 T00830000
KCAR 180054Z AUTO 20009G17KT 10SM SCT055 OVC075 08/M01 A3001 RMK AO2 SLP169 T00831006
KCAR 172354Z AUTO 19007KT 10SM OVC075 08/00 A3000 RMK AO2 SLP168 T00830000 10106 20083 57012
KCAR 172254Z AUTO 19005KT 10SM OVC090 08/00 A3001 RMK AO2 SLP173 T00830000
KCAR 172154Z AUTO 20006KT 10SM OVC055 09/M01 A3002 RMK AO2 SLP175 T00891006
KCAR 172054Z AUTO 21005KT 10SM OVC075 09/M01 A3004 RMK AO2 SLP180 T00941006 56010
KCAR 171954Z AUTO 24007KT 10SM SCT049 10/M01 A3005 RMK AO2 SLP182 T01001011
KCAR 171854Z AUTO 23007KT 10SM FEW085 09/M02 A3006 RMK AO2 SLP186 T00941017
KCAR 171754Z AUTO VRB05KT 10SM FEW070 SCT085 09/M02 A3007 RMK AO2 SLP190 T00941017 10094 20006 58023
KCAR 171654Z AUTO 22008KT 10SM SCT043 08/M02 A3010 RMK AO2 SLP202 T00831022
KCAR 171554Z AUTO 25009G14KT 10SM CLR 07/M04 A3013 RMK AO2 SLP212 T00721039
KCAR 171454Z AUTO VRB05KT 10SM CLR 06/M04 A3014 RMK AO2 SLP214 T00611044 58003
KCAR 171354Z AUTO 33005KT 10SM CLR 06/M04 A3014 RMK AO2 SLP217 T00561039
KCAR 171254Z AUTO 29004KT 10SM CLR 04/M01 A3015 RMK AO2 SLP219 T00391011
KCAR 171154Z AUTO 27003KT 10SM CLR 01/M02 A3015 RMK AO2 SLP218 T00061022 10017 21011 53015
KCAR 171054Z AUTO 26003KT 10SM CLR M01/M03 A3013 RMK AO2 SLP212 T10111028
KCAR 170954Z AUTO 00000KT 10SM CLR M01/M03 A3011 RMK AO2 SLP207 T10061028
KCAR 170854Z AUTO VRB03KT 10SM BKN075 01/M02 A3010 RMK AO2 SLP202 T00061022 53009
KCAR 170754Z AUTO 30005KT 10SM OVC070 02/M02 A3008 RMK AO2 SLP196 T00171017
KCAR 170654Z AUTO 30005KT 10SM BKN070 01/M02 A3008 RMK AO2 SLP194 T00111017
KCAR 170554Z AUTO 29005KT 10SM SCT065 02/M01 A3007 RMK AO2 SLP192 T00171011 10039 20017 53004
KCAR 170454Z AUTO 29004KT 10SM OVC060 03/00 A3007 RMK AO2 SLP190 T00280000 401670028
KCAR 170354Z AUTO 29004KT 10SM OVC060 03/00 A3006 RMK AO2 SLP188 T00280000
KCAR 170254Z AUTO 29004KT 10SM OVC055 03/01 A3006 RMK AO2 SLP187 T00330006 51013
KCAR 170154Z AUTO 29003KT 10SM BKN055 03/01 A3005 RMK AO2 SLP186 T00280006
KCAR 170054Z AUTO 32004KT 10SM OVC055 04/01 A3004 RMK AO2 SLP181 T00390006
KCAR 162354Z AUTO 33004KT 10SM OVC050 04/01 A3002 RMK AO2 RAB04E13 SLP175 P0000 60000 T00390006 10083 20039 53010
KCAR 162254Z AUTO 34008KT 10SM OVC032 05/00 A3001 RMK AO2 SLP170 T00500000
KCAR 162154Z AUTO 34011KT 10SM FEW025 OVC046 06/01 A2999 RMK AO2 SLP164 T00560006
KCAR 162151Z AUTO 33011KT 10SM SCT025 OVC046 06/01 A2999 RMK AO2
KCAR 162116Z AUTO 35004KT 10SM BKN026 OVC045 06/01 A2998 RMK AO2 T00610011
KCAR 162054Z AUTO 35005KT 10SM FEW026 OVC045 06/02 A2997 RMK AO2 RAB03E37 SLP156 P0000 60000 T00610017 53020
KCAR 162043Z AUTO 34008KT 10SM SCT032 BKN047 06/01 A2996 RMK AO2 RAB03E37 P0000 T00560011
KCAR 162010Z AUTO 35010G17KT 10SM -RA BKN024 BKN034 OVC045 05/01 A2995 RMK AO2 RAB03 P0000 T00500011
KCAR 161954Z AUTO 32008KT 10SM FEW028 OVC043 07/01 A2995 RMK AO2 SLP148 T00670006
KCAR 161854Z AUTO 32006KT 10SM SCT034 OVC042 08/01 A2992 RMK AO2 SLP138 T00780006
KCAR 161754Z AUTO 33011KT 10SM OVC033 07/00 A2991 RMK AO2 SLP133 T00720000 10083 20061 53011
KCAR 161732Z AUTO 31012G19KT 10SM BKN031 OVC040 08/01 A2990 RMK AO2 T00780006
KCAR 161654Z AUTO 31012G19KT 10SM BKN029 07/01 A2989 RMK AO2 SLP126 T00720006
KCAR 161631Z AUTO 32012G19KT 10SM BKN028 07/01 A2989 RMK AO2 T00670006
KCAR 161624Z AUTO 33013G20KT 10SM SCT028 07/01 A2989 RMK AO2 T00720006
KCAR 161554Z AUTO 33011G24KT 10SM BKN028 07/02 A2988 RMK AO2 SLP122 T00720017
KCAR 161552Z AUTO 33015G24KT 10SM BKN028 07/02 A2988 RMK AO2